Time;durP1;ratioP1;P1;durP2;ratioP2;P2;SDS_P1;SDS_P2;PMS_P1;PMS_P2;Temp;Humidity;BMP_temperature;BMP_pressure;BME280_temperature;BME280_humidity;BME280_pressure;Samples;Min_cycle;Max_cycle;Signal;HPM_P1;HPM_P2
2022/07/18 00:02:57;;;;;;;1.58;0.40;;;;;;;19.25;44.10;99719.06;5011813;28;20091;-59
2022/07/18 00:05:41;;;;;;;0.88;0.40;;;;;;;19.27;42.00;99717.13;5012574;28;20041;-59
2022/07/18 00:08:27;;;;;;;1.17;0.50;;;;;;;19.25;41.77;99716.41;5010736;28;20467;-59
2022/07/18 00:11:11;;;;;;;1.08;0.47;;;;;;;19.26;44.59;99711.94;5005017;28;20041;-61
2022/07/18 00:13:56;;;;;;;1.50;0.40;;;;;;;19.15;41.96;99708.44;5008298;28;20052;-59
2022/07/18 00:16:41;;;;;;;0.55;0.30;;;;;;;19.14;43.29;99709.44;5012378;28;20509;-61
2022/07/18 00:19:26;;;;;;;1.10;0.40;;;;;;;19.17;46.15;99710.94;5012346;28;20137;-60
2022/07/18 00:22:10;;;;;;;0.52;0.20;;;;;;;19.11;41.79;99712.31;5019207;28;20371;-60
2022/07/18 00:24:55;;;;;;;0.80;0.30;;;;;;;19.06;44.20;99714.56;5012152;28;20494;-59
2022/07/18 00:27:40;;;;;;;2.35;0.30;;;;;;;19.08;43.05;99705.47;5011804;28;20041;-58
2022/07/18 00:30:25;;;;;;;1.08;0.30;;;;;;;19.07;43.10;99709.09;5012102;28;20143;-59
2022/07/18 00:33:10;;;;;;;0.30;0.20;;;;;;;19.10;42.51;99707.16;5010670;28;20065;-59
2022/07/18 00:35:55;;;;;;;1.70;0.30;;;;;;;19.17;43.80;99711.81;5000069;28;20548;-59
2022/07/18 00:38:43;;;;;;;0.80;0.17;;;;;;;19.14;41.71;99701.47;5011772;28;20038;-59
2022/07/18 00:41:28;;;;;;;0.95;0.30;;;;;;;19.10;40.79;99707.16;5011132;28;20478;-60
2022/07/18 00:44:21;;;;;;;0.98;0.60;;;;;;;19.06;43.48;99704.75;5011040;28;20113;-59
2022/07/18 00:47:06;;;;;;;1.23;0.30;;;;;;;19.02;42.23;99700.69;5011439;28;20046;-59
2022/07/18 00:49:50;;;;;;;0.82;0.20;;;;;;;19.06;44.28;99702.09;5010667;28;20030;-59
2022/07/18 00:52:36;;;;;;;0.63;0.30;;;;;;;19.08;41.11;99704.59;5011287;28;20033;-60
2022/07/18 00:55:20;;;;;;;0.90;0.30;;;;;;;19.10;43.05;99699.19;5011709;28;20041;-59
2022/07/18 00:58:05;;;;;;;1.48;0.40;;;;;;;19.06;44.67;99702.09;5013074;28;20042;-59
2022/07/18 01:03:52;;;;;;;1.00;0.30;;;;;;;19.04;42.80;99698.75;5002108;28;20053;-60
2022/07/18 01:06:37;;;;;;;1.42;0.28;;;;;;;19.00;39.47;99699.19;5011415;28;20042;-59
2022/07/18 01:09:22;;;;;;;0.93;0.30;;;;;;;19.01;41.24;99699.03;5011345;28;20049;-59
2022/07/18 01:12:08;;;;;;;1.17;0.40;;;;;;;19.02;40.57;99699.84;5011633;28;20041;-59
2022/07/18 01:14:55;;;;;;;1.10;0.30;;;;;;;19.10;41.22;99696.53;5010219;28;20060;-59
2022/07/18 01:17:40;;;;;;;1.30;0.38;;;;;;;19.15;39.26;99699.63;5010291;28;20038;-58
2022/07/18 01:20:30;;;;;;;1.17;0.28;;;;;;;19.05;43.32;99705.72;5011383;28;20486;-59
2022/07/18 01:23:14;;;;;;;0.73;0.30;;;;;;;18.98;39.55;99699.28;5024511;28;20467;-59
2022/07/18 01:25:59;;;;;;;0.73;0.35;;;;;;;18.96;43.71;99696.75;5010740;28;20068;-59
2022/07/18 01:28:44;;;;;;;0.77;0.30;;;;;;;18.95;40.92;99700.41;4996734;28;20034;-58
2022/07/18 01:31:33;;;;;;;0.50;0.30;;;;;;;18.92;39.00;99695.38;5023780;28;20486;-59
2022/07/18 01:34:23;;;;;;;1.00;0.38;;;;;;;18.97;41.85;99697.63;5007896;28;20117;-59
2022/07/18 01:37:09;;;;;;;2.08;0.43;;;;;;;18.89;39.68;99700.13;5011751;28;20046;-59
2022/07/18 01:39:54;;;;;;;1.40;0.30;;;;;;;18.88;43.06;99696.63;5009725;28;20041;-59
2022/07/18 01:42:38;;;;;;;1.45;0.40;;;;;;;18.88;38.88;99694.00;5020445;28;20108;-60
2022/07/18 01:45:23;;;;;;;1.40;0.50;;;;;;;18.87;38.68;99697.59;4997627;28;20129;-59
2022/07/18 01:48:08;;;;;;;0.63;0.25;;;;;;;18.83;39.51;99696.22;5010605;28;20104;-60
2022/07/18 01:50:53;;;;;;;1.15;0.28;;;;;;;18.82;38.67;99697.16;5010513;28;20045;-59
2022/07/18 01:53:40;;;;;;;0.65;0.30;;;;;;;18.71;42.66;99698.13;5010263;28;20045;-61
2022/07/18 01:56:25;;;;;;;0.68;0.38;;;;;;;18.70;42.28;99699.09;5011260;28;20049;-58
2022/07/18 01:59:10;;;;;;;1.23;0.30;;;;;;;18.68;42.63;99699.25;5010789;28;20038;-58
2022/07/18 02:01:55;;;;;;;1.35;0.40;;;;;;;18.76;40.93;99698.56;5015010;28;20447;-60
2022/07/18 02:04:59;;;;;;;0.75;0.25;;;;;;;18.76;42.20;99695.91;5026621;28;20466;-59
2022/07/18 02:07:43;;;;;;;0.90;0.45;;;;;;;18.75;39.33;99696.03;5013783;28;20049;-59
2022/07/18 02:10:28;;;;;;;0.50;0.20;;;;;;;18.68;37.71;99703.69;5013523;28;20057;-59
2022/07/18 02:13:13;;;;;;;0.85;0.40;;;;;;;18.61;37.94;99703.41;5015254;28;20108;-59
2022/07/18 02:15:57;;;;;;;1.42;0.22;;;;;;;18.65;38.65;99698.66;5014226;28;20038;-59
2022/07/18 02:18:43;;;;;;;0.93;0.32;;;;;;;18.66;40.26;99700.34;5014252;28;20050;-58
2022/07/18 02:21:27;;;;;;;0.98;0.30;;;;;;;18.62;40.37;99698.94;5013146;28;20096;-59
2022/07/18 02:24:12;;;;;;;1.30;0.60;;;;;;;18.36;39.74;99702.06;5013439;28;20041;-59
2022/07/18 02:26:57;;;;;;;1.15;0.32;;;;;;;18.28;40.03;99697.44;5014733;28;20100;-60
2022/07/18 02:29:41;;;;;;;0.98;0.30;;;;;;;18.25;43.11;99703.00;5020665;28;20069;-59
2022/07/18 02:32:27;;;;;;;1.20;0.43;;;;;;;18.45;44.37;99717.16;5013504;28;20042;-59
2022/07/18 02:35:11;;;;;;;1.33;0.35;;;;;;;18.42;41.87;99709.47;5012785;28;20048;-59
2022/07/18 02:37:56;;;;;;;0.50;0.20;;;;;;;18.44;39.81;99708.34;5013030;28;20095;-59
2022/07/18 02:40:41;;;;;;;1.15;0.40;;;;;;;18.43;42.13;99705.84;5012511;28;20034;-60
2022/07/18 02:43:29;;;;;;;1.38;0.38;;;;;;;18.35;42.31;99703.88;5026989;28;20402;-59
2022/07/18 02:46:13;;;;;;;0.85;0.47;;;;;;;18.19;39.83;99707.84;5016245;28;20045;-59
2022/07/18 02:48:58;;;;;;;0.77;0.20;;;;;;;18.19;41.54;99707.84;5012849;28;20038;-59
2022/07/18 02:51:43;;;;;;;0.50;0.30;;;;;;;18.22;42.26;99699.63;5014413;28;20148;-60
2022/07/18 02:54:30;;;;;;;1.20;0.50;;;;;;;18.05;41.38;99708.16;5026723;28;20061;-59
2022/07/18 02:57:14;;;;;;;1.20;0.22;;;;;;;18.00;39.29;99705.06;5015513;28;20425;-59
2022/07/18 02:59:59;;;;;;;0.77;0.30;;;;;;;18.01;41.75;99706.72;5014240;28;20033;-59
2022/07/18 03:02:45;;;;;;;1.13;0.30;;;;;;;18.03;40.44;99712.75;5011653;28;20037;-59
2022/07/18 03:05:29;;;;;;;1.73;0.60;;;;;;;18.12;39.26;99705.81;5011759;28;20478;-59
2022/07/18 03:08:14;;;;;;;1.48;0.30;;;;;;;18.10;42.70;99700.63;5012756;28;20050;-59
2022/07/18 03:10:59;;;;;;;0.93;0.32;;;;;;;18.13;41.53;99703.06;5010665;28;20098;-59
2022/07/18 03:13:44;;;;;;;1.83;0.43;;;;;;;17.92;44.79;99708.38;5011064;28;20129;-60
2022/07/18 03:16:29;;;;;;;1.20;0.40;;;;;;;17.87;40.34;99710.56;5013072;28;20038;-59
2022/07/18 03:19:13;;;;;;;1.85;0.55;;;;;;;17.77;40.67;99699.91;5012831;28;20440;-61
2022/07/18 03:21:58;;;;;;;1.17;0.40;;;;;;;17.79;39.66;99706.72;5006670;28;20046;-60
2022/07/18 03:24:43;;;;;;;0.80;0.38;;;;;;;17.78;41.83;99709.50;5016679;28;20050;-61
2022/07/18 03:27:27;;;;;;;1.83;0.40;;;;;;;17.83;40.06;99704.66;5012760;28;20045;-60
2022/07/18 03:30:12;;;;;;;0.73;0.38;;;;;;;17.74;40.66;99708.94;5012034;28;20034;-61
2022/07/18 03:32:57;;;;;;;1.55;0.40;;;;;;;17.68;40.87;99710.28;5013613;28;20061;-61
2022/07/18 03:35:42;;;;;;;2.00;0.22;;;;;;;17.59;41.29;99706.59;5001686;28;20096;-61
2022/07/18 03:38:26;;;;;;;2.40;0.40;;;;;;;17.72;41.85;99713.53;5012992;28;21550;-61
2022/07/18 03:41:11;;;;;;;1.58;0.60;;;;;;;17.74;41.05;99714.22;5012790;28;20042;-61
2022/07/18 03:43:56;;;;;;;0.82;0.30;;;;;;;17.73;43.28;99708.09;5014189;28;20033;-61
2022/07/18 03:46:41;;;;;;;1.02;0.43;;;;;;;17.72;42.70;99714.34;5017945;28;20486;-61
2022/07/18 03:49:26;;;;;;;0.47;0.20;;;;;;;17.81;43.29;99715.41;5023524;28;20393;-61
2022/07/18 03:52:10;;;;;;;0.47;0.30;;;;;;;17.65;42.10;99715.00;5012831;28;20041;-61
2022/07/18 03:54:55;;;;;;;0.93;0.40;;;;;;;17.64;45.59;99716.84;5026069;28;20504;-62
2022/07/18 03:57:40;;;;;;;1.15;0.30;;;;;;;17.72;42.53;99709.06;5009510;28;20111;-61
2022/07/18 04:00:26;;;;;;;0.82;0.40;;;;;;;17.82;42.95;99714.41;5012116;28;20107;-60
2022/07/18 04:03:10;;;;;;;0.50;0.20;;;;;;;18.03;42.75;99718.03;5011765;28;20034;-61
2022/07/18 04:05:55;;;;;;;1.27;0.30;;;;;;;18.04;43.04;99717.06;5024749;28;20068;-61
2022/07/18 04:08:40;;;;;;;1.88;0.82;;;;;;;17.84;41.98;99723.09;5012804;28;20474;-60
2022/07/18 04:11:24;;;;;;;2.53;0.50;;;;;;;17.87;42.76;99723.81;5000066;28;20042;-55
2022/07/18 04:14:09;;;;;;;1.10;0.30;;;;;;;17.92;43.09;99733.03;5010945;28;20052;-55
2022/07/18 04:16:54;;;;;;;1.15;0.30;;;;;;;17.99;43.81;99730.72;5011357;28;20049;-54
2022/07/18 04:19:38;;;;;;;1.38;0.30;;;;;;;18.16;43.25;99731.97;4997436;28;20038;-54
2022/07/18 04:22:23;;;;;;;2.15;0.40;;;;;;;18.11;43.17;99726.19;5022249;28;20107;-56
2022/07/18 04:25:08;;;;;;;0.90;0.40;;;;;;;18.09;41.31;99725.47;5012128;28;20482;-60
2022/07/18 04:27:53;;;;;;;2.95;0.30;;;;;;;18.18;42.18;99724.72;5010781;28;20041;-61
2022/07/18 04:30:40;;;;;;;0.65;0.30;;;;;;;18.34;42.81;99718.09;4999741;28;20060;-61
2022/07/18 04:33:25;;;;;;;1.23;0.30;;;;;;;18.49;40.79;99712.44;5013937;28;20037;-60
2022/07/18 04:36:10;;;;;;;0.85;0.45;;;;;;;18.51;40.91;99723.75;5020045;28;20049;-61
2022/07/18 04:38:54;;;;;;;2.08;0.40;;;;;;;18.55;40.29;99723.38;5012272;28;20425;-61
2022/07/18 04:41:39;;;;;;;1.42;0.43;;;;;;;18.68;41.01;99727.59;5012318;28;20038;-61
2022/07/18 04:44:24;;;;;;;0.88;0.30;;;;;;;18.86;40.79;99727.78;5011116;28;20447;-60
2022/07/18 04:47:09;;;;;;;0.55;0.30;;;;;;;18.91;41.85;99724.72;5011627;28;20046;-61
2022/07/18 04:49:54;;;;;;;1.48;0.50;;;;;;;19.09;41.11;99730.19;5011755;28;20096;-60
2022/07/18 04:52:42;;;;;;;1.50;0.40;;;;;;;19.19;39.94;99728.41;5010322;28;20088;-60
2022/07/18 04:55:28;;;;;;;1.05;0.30;;;;;;;19.26;41.43;99727.88;5011566;28;20048;-60
2022/07/18 04:58:12;;;;;;;1.17;0.40;;;;;;;19.42;41.31;99722.84;5000329;28;20069;-60
2022/07/18 05:00:57;;;;;;;0.32;0.20;;;;;;;19.56;40.78;99726.06;5011584;28;20046;-60
2022/07/18 05:03:42;;;;;;;0.85;0.35;;;;;;;19.69;40.67;99731.94;5011744;28;20045;-61
2022/07/18 05:06:26;;;;;;;0.93;0.30;;;;;;;19.84;39.02;99730.66;5011605;28;20037;-60
2022/07/18 05:09:11;;;;;;;2.22;0.68;;;;;;;20.02;38.73;99728.09;5011627;28;20060;-60
2022/07/18 05:11:55;;;;;;;3.22;0.45;;;;;;;20.00;38.67;99725.59;5012066;28;20049;-60
2022/07/18 05:14:40;;;;;;;2.53;0.40;;;;;;;20.09;39.66;99731.06;5009639;28;20049;-60
2022/07/18 05:17:25;;;;;;;0.93;0.30;;;;;;;20.16;39.22;99729.50;5011810;28;20443;-62
2022/07/18 05:20:13;;;;;;;0.75;0.30;;;;;;;20.26;39.35;99730.31;5009826;28;20434;-60
2022/07/18 05:22:58;;;;;;;1.42;0.50;;;;;;;20.33;39.72;99719.09;5023637;28;20042;-62
2022/07/18 05:25:42;;;;;;;4.18;2.33;;;;;;;20.35;38.95;99725.91;4997237;28;20046;-61
2022/07/18 05:28:28;;;;;;;1.50;0.55;;;;;;;20.43;38.25;99727.88;5010660;28;20367;-60
2022/07/18 05:31:13;;;;;;;0.77;0.30;;;;;;;20.46;38.25;99724.91;5011064;28;20081;-59
2022/07/18 05:33:57;;;;;;;2.17;0.70;;;;;;;20.77;41.29;99721.97;4991929;28;20058;-60
2022/07/18 05:36:42;;;;;;;0.68;0.40;;;;;;;20.84;39.50;99730.19;5021029;28;20484;-60
2022/07/18 05:39:27;;;;;;;1.63;0.50;;;;;;;20.71;38.63;99719.88;5017416;28;20072;-60
2022/07/18 05:42:11;;;;;;;1.00;0.45;;;;;;;20.60;42.60;99728.06;5022704;28;20041;-60
2022/07/18 05:44:56;;;;;;;0.95;0.40;;;;;;;20.64;44.99;99734.78;5023441;28;20068;-60
2022/07/18 05:47:41;;;;;;;2.55;0.57;;;;;;;20.77;44.92;99734.44;5016652;28;20042;-60
2022/07/18 05:50:26;;;;;;;1.95;0.75;;;;;;;20.73;45.96;99733.88;5019514;28;20046;-60
2022/07/18 05:53:11;;;;;;;2.05;0.32;;;;;;;20.77;46.12;99740.59;5025822;28;20040;-60
2022/07/18 05:55:56;;;;;;;1.65;0.50;;;;;;;20.70;44.25;99742.16;5003514;28;20470;-60
2022/07/18 05:58:40;;;;;;;0.95;0.40;;;;;;;20.72;44.21;99742.03;5016972;28;20077;-60
2022/07/18 06:01:25;;;;;;;1.13;0.50;;;;;;;20.66;45.17;99746.94;5017825;28;20042;-60
2022/07/18 06:04:10;;;;;;;2.58;0.50;;;;;;;20.48;44.27;99751.38;5016781;28;20038;-60
2022/07/18 06:06:54;;;;;;;1.60;0.43;;;;;;;20.76;45.53;99751.41;5016162;28;20124;-60
2022/07/18 06:09:39;;;;;;;0.98;0.60;;;;;;;20.50;45.38;99744.09;5003948;28;20049;-59
2022/07/18 06:12:28;;;;;;;2.67;0.65;;;;;;;20.41;45.88;99751.13;5016914;28;20046;-60
2022/07/18 06:15:13;;;;;;;1.58;0.40;;;;;;;20.33;46.39;99751.00;5017734;28;20053;-60
2022/07/18 06:17:58;;;;;;;4.32;1.02;;;;;;;20.62;45.54;99750.06;5012478;28;20069;-61
2022/07/18 06:20:43;;;;;;;1.50;0.60;;;;;;;20.63;46.28;99752.56;5017704;28;20118;-60
2022/07/18 06:23:28;;;;;;;2.42;0.68;;;;;;;20.84;45.52;99746.16;5030387;28;20068;-60
2022/07/18 06:26:12;;;;;;;1.80;0.80;;;;;;;20.94;45.94;99738.13;5017130;28;20044;-60
2022/07/18 06:28:57;;;;;;;1.38;0.65;;;;;;;21.24;45.49;99749.47;5016971;28;20046;-59
2022/07/18 06:31:42;;;;;;;1.58;0.60;;;;;;;21.17;46.35;99741.22;5029706;28;20056;-60
2022/07/18 06:34:27;;;;;;;1.00;0.40;;;;;;;21.45;46.64;99742.13;5017468;28;20505;-59
2022/07/18 06:37:12;;;;;;;2.45;0.70;;;;;;;21.94;44.60;99741.75;5016438;28;20125;-60
2022/07/18 06:39:59;;;;;;;2.30;0.60;;;;;;;22.09;44.49;99741.16;5017428;28;20044;-62
2022/07/18 06:42:44;;;;;;;2.60;0.75;;;;;;;22.91;42.63;99747.09;5004453;28;20054;-60
2022/07/18 06:45:29;;;;;;;1.90;1.00;;;;;;;22.95;41.55;99740.41;5028129;28;20072;-60
2022/07/18 06:48:15;;;;;;;2.42;0.82;;;;;;;23.35;41.52;99743.34;5013809;28;20037;-60
2022/07/18 06:51:01;;;;;;;2.15;0.82;;;;;;;23.10;39.38;99743.28;5018889;28;20049;-60
2022/07/18 06:53:46;;;;;;;1.77;0.75;;;;;;;23.01;39.81;99747.81;5019654;28;20073;-61
2022/07/18 06:56:31;;;;;;;2.25;0.80;;;;;;;23.54;39.70;99744.03;5007465;28;20050;-61
2022/07/18 06:59:16;;;;;;;2.80;0.85;;;;;;;23.98;37.79;99741.03;5026672;28;20068;-61
2022/07/18 07:02:00;;;;;;;3.35;0.85;;;;;;;23.98;35.88;99742.84;4998483;28;20069;-60
2022/07/18 07:04:45;;;;;;;4.43;0.80;;;;;;;23.86;35.55;99737.03;5009770;28;20104;-60
2022/07/18 07:07:30;;;;;;;2.72;0.82;;;;;;;23.56;33.65;99740.22;5012060;28;20485;-60
2022/07/18 07:10:17;;;;;;;2.35;0.75;;;;;;;23.92;33.94;99735.50;4999285;28;20042;-61
2022/07/18 07:13:02;;;;;;;3.92;0.88;;;;;;;23.74;36.00;99737.38;5031157;28;20044;-60
2022/07/18 07:15:46;;;;;;;1.83;0.70;;;;;;;23.86;33.97;99732.50;5020938;28;20097;-60
2022/07/18 07:18:31;;;;;;;3.20;0.80;;;;;;;24.14;33.67;99725.94;5000990;28;20042;-60
2022/07/18 07:21:16;;;;;;;2.53;0.98;;;;;;;23.87;34.81;99736.03;5026505;28;20088;-60
2022/07/18 07:24:02;;;;;;;0.85;0.47;;;;;;;24.80;35.34;99721.38;5025678;28;20060;-61
2022/07/18 07:26:47;;;;;;;0.98;0.63;;;;;;;25.03;30.37;99726.81;5017111;28;20386;-60
2022/07/18 07:29:31;;;;;;;1.52;0.80;;;;;;;24.23;31.53;99732.16;5019279;28;20038;-61
2022/07/18 07:32:16;;;;;;;1.77;0.70;;;;;;;24.13;32.51;99729.63;5002557;28;20406;-61
2022/07/18 07:35:03;;;;;;;1.88;0.70;;;;;;;25.06;31.06;99733.66;5012469;28;20500;-60
2022/07/18 07:37:50;;;;;;;2.30;0.70;;;;;;;25.30;29.50;99724.59;5024744;28;20488;-60
2022/07/18 07:40:35;;;;;;;1.15;0.60;;;;;;;24.87;30.06;99725.03;5000389;28;20034;-60
2022/07/18 07:43:19;;;;;;;2.95;0.68;;;;;;;24.94;30.34;99728.69;5012007;28;20042;-60
2022/07/18 07:46:04;;;;;;;1.45;0.80;;;;;;;24.83;30.44;99726.38;5013553;28;20447;-60
2022/07/18 07:48:49;;;;;;;2.17;0.77;;;;;;;25.62;29.13;99729.94;5012572;28;20053;-60
2022/07/18 07:51:33;;;;;;;1.77;0.90;;;;;;;25.35;31.51;99724.06;5013377;28;20568;-60
2022/07/18 07:54:21;;;;;;;1.85;0.60;;;;;;;25.18;30.01;99729.53;4999982;28;20049;-60
2022/07/18 07:57:06;;;;;;;1.48;0.70;;;;;;;26.06;29.89;99730.19;5012161;28;20472;-59
2022/07/18 07:59:51;;;;;;;1.38;0.60;;;;;;;26.66;28.03;99729.34;4998200;28;20480;-60
2022/07/18 08:02:37;;;;;;;2.38;0.70;;;;;;;26.92;27.50;99725.31;5011016;28;20394;-61
2022/07/18 08:05:22;;;;;;;1.30;0.47;;;;;;;26.65;27.42;99731.19;5011396;28;20133;-61
2022/07/18 08:08:07;;;;;;;2.42;0.57;;;;;;;27.08;26.98;99729.66;5023598;28;20041;-61
2022/07/18 08:10:53;;;;;;;1.38;0.60;;;;;;;27.25;28.02;99730.25;5012316;28;20482;-61
2022/07/18 08:13:37;;;;;;;4.07;1.08;;;;;;;27.05;26.83;99733.56;5024604;28;20050;-61
2022/07/18 08:16:22;;;;;;;1.85;0.60;;;;;;;26.20;27.96;99740.09;4999987;28;20041;-62
2022/07/18 08:19:07;;;;;;;5.70;2.05;;;;;;;26.19;28.25;99734.91;5012297;28;20046;-61
2022/07/18 08:21:52;;;;;;;1.52;0.60;;;;;;;27.59;26.82;99727.00;5002996;28;20042;-61
2022/07/18 08:24:36;;;;;;;1.05;0.47;;;;;;;27.57;28.81;99729.91;5021074;28;20041;-62
2022/07/18 08:27:21;;;;;;;2.40;0.82;;;;;;;28.51;29.74;99723.53;5012394;28;20390;-62
2022/07/18 08:30:07;;;;;;;1.60;0.50;;;;;;;28.19;26.47;99715.84;5009054;28;20038;-61
2022/07/18 08:32:52;;;;;;;1.10;0.40;;;;;;;28.05;25.87;99725.72;5021186;28;20116;-61
2022/07/18 08:35:37;;;;;;;2.25;0.73;;;;;;;28.10;28.75;99719.75;5016328;28;20073;-61
2022/07/18 08:38:21;;;;;;;1.25;0.40;;;;;;;27.59;25.99;99727.00;5011654;28;20042;-62
2022/07/18 08:41:06;;;;;;;2.63;0.70;;;;;;;28.64;27.31;99720.84;5011689;28;20501;-61
2022/07/18 08:43:51;;;;;;;2.80;0.68;;;;;;;29.00;29.06;99713.53;5011318;28;20029;-62
2022/07/18 08:46:39;;;;;;;2.00;1.13;;;;;;;28.44;25.72;99719.94;5010466;28;20049;-61
2022/07/18 08:49:24;;;;;;;1.75;0.38;;;;;;;28.41;24.77;99718.50;5012231;28;20102;-61
2022/07/18 08:52:08;;;;;;;2.70;0.40;;;;;;;29.24;24.40;99710.47;5010602;28;20046;-62
2022/07/18 08:54:53;;;;;;;1.90;0.60;;;;;;;28.80;23.77;99713.47;5010329;28;20042;-61
2022/07/18 08:57:38;;;;;;;4.15;0.70;;;;;;;29.25;24.06;99717.50;5001486;28;20358;-62
2022/07/18 09:00:23;;;;;;;7.28;1.38;;;;;;;30.00;26.55;99710.22;5024091;28;20426;-63
2022/07/18 09:03:07;;;;;;;2.70;0.60;;;;;;;28.92;25.87;99712.88;5010881;28;20045;-61
2022/07/18 09:06:09;;;;;;;3.80;0.85;;;;;;;29.96;25.48;99707.16;5011152;28;20116;-62
2022/07/18 09:09:00;;;;;;;1.50;0.30;;;;;;;30.26;23.82;99713.94;5010408;28;20037;-61
2022/07/18 09:11:53;;;;;;;2.38;0.60;;;;;;;30.80;23.18;99697.53;5010399;28;20073;-62
2022/07/18 09:14:40;;;;;;;1.50;0.40;;;;;;;30.55;30.59;99703.66;5002009;28;20060;-62
2022/07/18 09:17:30;;;;;;;1.05;0.30;;;;;;;31.41;23.97;99704.41;4997224;28;20777;-62
2022/07/18 09:20:15;;;;;;;1.17;0.50;;;;;;;31.34;24.10;99704.44;4999477;28;20045;-62
2022/07/18 09:23:13;;;;;;;1.70;0.50;;;;;;;31.69;26.26;99698.56;5010938;28;20049;-62
2022/07/18 09:26:02;;;;;;;1.33;0.45;;;;;;;31.29;26.88;99690.75;5011595;28;20474;-62
2022/07/18 09:28:53;;;;;;;1.55;0.30;;;;;;;31.31;27.16;99692.19;5010012;28;20048;-63
2022/07/18 09:31:38;;;;;;;0.88;0.32;;;;;;;31.46;29.47;99688.34;5023669;28;20084;-61
2022/07/18 09:34:38;;;;;;;1.98;0.40;;;;;;;31.04;23.70;99681.59;5024535;28;20041;-63
2022/07/18 09:37:24;;;;;;;0.80;0.28;;;;;;;31.92;27.25;99693.53;4999751;28;20038;-63
2022/07/18 09:40:28;;;;;;;2.38;0.73;;;;;;;31.82;25.88;99685.94;5011112;28;20065;-63
2022/07/18 09:43:15;;;;;;;1.23;0.40;;;;;;;32.06;27.44;99692.38;5010610;28;20037;-62
2022/07/18 09:46:04;;;;;;;1.75;0.68;;;;;;;33.53;27.66;99683.47;5011959;28;20048;-62
2022/07/18 09:49:08;;;;;;;3.00;0.45;;;;;;;34.08;22.43;99680.63;5010850;28;20042;-62
2022/07/18 09:52:07;;;;;;;1.00;0.30;;;;;;;32.53;22.59;99682.88;5010094;28;20125;-62
2022/07/18 09:55:05;;;;;;;1.73;0.65;;;;;;;32.61;22.80;99672.78;5011356;28;20077;-63
2022/07/18 09:57:58;;;;;;;4.13;0.50;;;;;;;32.50;25.21;99677.88;5000038;28;20042;-63
2022/07/18 10:00:44;;;;;;;2.80;0.40;;;;;;;32.96;24.71;99674.75;5011122;28;20069;-63
2022/07/18 10:03:29;;;;;;;2.13;0.50;;;;;;;33.08;24.97;99663.97;5011381;28;20042;-61
2022/07/18 10:06:15;;;;;;;2.28;0.50;;;;;;;33.36;28.68;99665.16;5001856;28;20049;-62
2022/07/18 10:09:00;;;;;;;1.40;0.40;;;;;;;33.19;25.58;99662.34;5023916;28;20034;-61
2022/07/18 10:11:45;;;;;;;1.05;0.57;;;;;;;33.66;24.29;99660.72;4998140;28;20033;-61
2022/07/18 10:14:30;;;;;;;1.00;0.30;;;;;;;32.84;24.53;99679.34;5009693;28;20038;-61
2022/07/18 10:17:16;;;;;;;2.00;0.30;;;;;;;33.44;24.51;99677.59;5011573;28;20402;-61
2022/07/18 10:20:06;;;;;;;1.10;0.40;;;;;;;33.31;25.89;99668.59;5009503;28;20042;-61
2022/07/18 10:22:52;;;;;;;;;;;;;;;33.40;25.79;99660.09;5027056;28;20148;-61
2022/07/18 10:25:37;;;;;;;1.25;0.38;;;;;;;33.41;24.43;99661.78;5022572;28;19924;-61
2022/07/18 10:28:22;;;;;;;2.08;0.35;;;;;;;32.36;19.40;99662.84;5015253;28;20064;-62
2022/07/18 10:31:15;;;;;;;2.97;0.50;;;;;;;31.62;19.54;99673.41;5014210;28;20058;-62
2022/07/18 10:34:07;;;;;;;1.95;0.30;;;;;;;32.50;19.30;99672.47;5014544;28;20544;-63
2022/07/18 10:37:00;;;;;;;0.95;0.40;;;;;;;32.19;22.78;99669.72;5002614;28;20064;-62
2022/07/18 10:39:46;;;;;;;2.17;0.30;;;;;;;32.92;21.16;99665.44;5014133;28;20382;-61
2022/07/18 10:42:31;;;;;;;1.25;0.50;;;;;;;33.17;20.26;99659.03;5014134;28;20046;-61
2022/07/18 10:45:44;;;;;;;1.33;0.20;;;;;;;34.50;20.90;99655.13;5026053;28;20070;-61
2022/07/18 10:48:38;;;;;;;0.90;0.40;;;;;;;34.60;21.69;99657.19;5013778;28;20125;-61
2022/07/18 10:51:30;;;;;;;0.73;0.35;;;;;;;33.57;24.39;99649.38;5014305;28;20053;-61
2022/07/18 10:54:15;;;;;;;0.60;0.25;;;;;;;33.40;21.92;99654.66;5012256;28;20478;-61
2022/07/18 10:57:00;;;;;;;2.67;0.32;;;;;;;33.16;18.24;99639.22;5015069;28;20038;-61
2022/07/18 11:00:08;;;;;;;1.50;0.40;;;;;;;34.41;17.93;99651.94;5021578;28;20093;-61
2022/07/18 11:03:10;;;;;;;1.38;0.20;;;;;;;34.77;17.67;99633.59;5002001;28;20046;-61
2022/07/18 11:05:56;;;;;;;0.88;0.40;;;;;;;35.15;19.07;99630.38;5012207;28;20041;-61
2022/07/18 11:08:41;;;;;;;0.65;0.20;;;;;;;35.19;22.27;99638.88;5014137;28;20478;-61
2022/07/18 11:11:26;;;;;;;0.80;0.15;;;;;;;34.95;15.12;99618.09;5014188;28;20066;-61
2022/07/18 11:14:57;;;;;;;3.22;0.40;;;;;;;33.46;20.49;99620.34;5013432;28;20072;-62
2022/07/18 11:17:54;;;;;;;0.85;0.30;;;;;;;34.88;18.38;99612.81;5025830;28;20462;-61
2022/07/18 11:20:41;;;;;;;1.23;0.28;;;;;;;35.58;15.61;99614.41;5013892;28;20034;-61
2022/07/18 11:23:27;;;;;;;1.13;0.22;;;;;;;35.12;14.47;99606.41;5026923;28;20117;-61
2022/07/18 11:26:17;;;;;;;2.17;0.30;;;;;;;34.39;15.34;99608.69;5013196;28;20046;-60
2022/07/18 11:29:10;;;;;;;1.05;0.28;;;;;;;35.29;17.94;99608.31;5023837;28;20042;-61
2022/07/18 11:31:57;;;;;;;1.08;0.30;;;;;;;35.21;14.67;99610.38;5012281;28;20053;-61
2022/07/18 11:34:50;;;;;;;0.80;0.15;;;;;;;35.77;20.29;99600.53;5012604;28;20530;-61
2022/07/18 11:37:36;;;;;;;1.48;0.20;;;;;;;35.62;19.52;99601.97;5013767;28;20061;-62
2022/07/18 11:40:21;;;;;;;1.95;0.20;;;;;;;35.80;20.96;99607.38;5013215;28;20133;-62
2022/07/18 11:43:06;;;;;;;0.60;0.22;;;;;;;36.07;16.63;99604.69;5012067;28;20029;-62
2022/07/18 11:46:08;;;;;;;0.22;0.15;;;;;;;36.23;16.90;99597.53;5013509;28;20034;-61
2022/07/18 11:49:04;;;;;;;0.70;0.15;;;;;;;36.54;15.35;99594.31;5012867;28;20034;-61
2022/07/18 11:51:49;;;;;;;1.58;0.17;;;;;;;35.72;13.53;99595.84;5012515;28;20041;-60
2022/07/18 11:54:34;;;;;;;0.45;0.20;;;;;;;35.94;12.96;99595.00;5005152;28;20050;-60
2022/07/18 11:57:29;;;;;;;0.30;0.20;;;;;;;34.65;13.70;99590.13;5012407;28;20092;-60
2022/07/18 12:00:19;;;;;;;1.23;0.10;;;;;;;33.43;15.04;99581.75;5012596;28;20042;-60
2022/07/18 12:03:11;;;;;;;0.52;0.17;;;;;;;33.35;18.91;99584.81;5002026;28;20069;-61
2022/07/18 12:05:57;;;;;;;0.82;0.30;;;;;;;33.73;17.92;99579.13;5012658;28;20045;-60
2022/07/18 12:08:52;;;;;;;2.47;0.30;;;;;;;34.65;16.78;99567.56;5025538;28;20053;-60
2022/07/18 12:11:39;;;;;;;0.60;0.20;;;;;;;35.13;15.52;99572.66;5006608;28;20072;-59
2022/07/18 12:14:24;;;;;;;2.97;0.35;;;;;;;35.23;13.31;99570.13;5012547;28;20052;-60
2022/07/18 12:17:09;;;;;;;0.50;0.20;;;;;;;34.37;16.87;99561.91;5012771;28;20054;-60
2022/07/18 12:20:18;;;;;;;2.28;0.30;;;;;;;35.93;14.71;99568.84;5010961;28;20380;-61
2022/07/18 12:23:11;;;;;;;0.73;0.28;;;;;;;36.07;12.88;99555.63;5011389;28;20462;-59
2022/07/18 12:25:57;;;;;;;0.65;0.30;;;;;;;36.02;16.65;99560.22;5012658;28;20037;-60
2022/07/18 12:28:42;;;;;;;0.43;0.30;;;;;;;36.17;14.96;99562.28;5011111;28;20387;-60
2022/07/18 12:31:45;;;;;;;1.23;0.30;;;;;;;35.77;16.30;99556.94;5010794;28;20562;-60
2022/07/18 12:34:30;;;;;;;1.67;0.47;;;;;;;35.89;13.38;99554.09;5021268;28;20057;-61
2022/07/18 12:37:23;;;;;;;0.52;0.20;;;;;;;34.53;14.59;99535.81;5009494;28;20038;-60
2022/07/18 12:40:10;;;;;;;0.80;0.20;;;;;;;34.94;15.77;99534.84;5010910;28;20037;-60
2022/07/18 12:43:04;;;;;;;0.68;0.20;;;;;;;34.42;16.82;99539.44;5009590;28;20486;-61
2022/07/18 12:45:48;;;;;;;1.25;0.30;;;;;;;35.47;17.46;99550.00;5010953;28;20604;-59
2022/07/18 12:48:42;;;;;;;0.95;0.40;;;;;;;36.37;18.11;99545.31;5019479;28;20103;-61
2022/07/18 12:51:36;;;;;;;3.40;0.32;;;;;;;36.05;18.82;99541.47;5007152;28;20474;-61
2022/07/18 12:54:21;;;;;;;3.20;0.20;;;;;;;36.16;17.95;99541.53;5011736;28;20423;-61
2022/07/18 12:57:12;;;;;;;0.70;0.10;;;;;;;36.95;21.29;99536.50;5011253;28;20042;-63
2022/07/18 13:00:04;;;;;;;0.20;0.10;;;;;;;36.05;17.07;99529.72;4997085;28;20045;-62
2022/07/18 13:02:57;;;;;;;1.15;0.30;;;;;;;35.37;19.41;99537.91;5023694;28;20133;-61
2022/07/18 13:05:42;;;;;;;0.88;0.30;;;;;;;35.03;16.76;99537.94;5010714;28;20489;-61
2022/07/18 13:08:27;;;;;;;1.15;0.43;;;;;;;35.44;20.75;99543.19;5012329;28;20049;-61
2022/07/18 13:11:12;;;;;;;0.15;0.10;;;;;;;36.42;21.47;99529.00;5000568;28;20109;-60